Record high temperature 52.3°C Record low temperature -14.8°C Record high gust 66.0 kts Record high average 44.0 kts Record daily rain 221.2 mm Record low windchill -23.5°C Record high barometer 1099.9 hPa Record low barometer 815.2 hPa
Daily high pressure 1013.4 hPa Daily low pressure 1005.5 hPa Daily low windchill 18.1°C Daily high heat index 25.3°C Daily high gust speed 11.3 kts NW Daily high average speed 11.0 kts NW
Potts Point Sydney
LAST READING AT TIME: 06:20 DATE: 26 April 2017, time of next update: 06:30
Current WeatherDawn/Clear/Clear Current Temperature 18.1°C (64.6°F) (Heat Index 18.1°C ), Apparent temp 19.2°C , Apparent temp solar 19.2°C
Maximum Temperature (since 9am)25.3°C at: 13:18 Minimum Temperature (since 9am)18.1°C at: 06:18
Average windspeed (ten minute)0.0 kts (0.0 kmh) Wind Direction (ten minute)NW (313°)
Heat Index 18.1°C Maximum Gust (last hour)4.3 kts (7.9 kmh) at: 05:58
Maximum Gust (since 9am)11.3 kts (20.8 kmh) at: 18:13 Maximum 1 minute average (since 9am)11.0 kts (20.3 kmh) at: 18:14
Rainfall (last hour)0.0 mm Rainfall (since 9am)1.5 mm (0.06 in.) at 16:16
Rainfall This month 33.3 mm (1.31 in.) Rainfall To date this year 538.2 mm (21.19 in.)
Maximum rain per minute (last hour)0.0 mm/min Maximum rain per hour (last 6 hours)0.0 mm/hour
Yesterdays rainfall 0.0 mm DewPoint 13.2°C (Wet Bulb :15.3°C )
Humidity 73 %, Humidex 21.0°C Barometer corrected to msl1006.3 hPa
Pressure change +0.4 hPa (last hour) Trend (last hour)STEADY
Pressure change (last 12 hours)-1.4 hPa Pressure change (last 6 hours)-0.7 hPa
Current Indoor Temp. 24.4°C
Current Indoor Hum. 56%
Current solar 0 W/mē Current UV0.0
Maximum solar (since 9am) 663 W/mē Minimum solar (since 9am)1000 W/mē
Current 00:00 hours of sunshine today, current sky: Dawn/Clear/Clear
Sunshine hours for the year: 384:18 hrs Sunshine hours for the month: 85:54 hrs
Current evapotranspiration rate 0.7 mm per day. Yesterday's reading 2.7

This page is updated from recent data collected by a WS2310 weather station Use the Reload or Refresh facility on your browser to retrieve the latest data.


Animated web cam image


Weather report/warning/Metars

Sydney Airport, Australia (YSSY) 33-57S 151-11E 3M
Apr 25, 2017 - 03:30 PM EDT / 2017.04.25 1930 UTC
Wind: from the NW (320 degrees) at 6 MPH (5 KT):0
Visibility: greater than 7 mile(s):0
Temperature: 62 F (17 C)
Dew Point: 59 F (15 C)
Relative Humidity: 88%
Pressure (altimeter): 29.71 in. Hg (1006 hPa)
ob: YSSY 251930Z 32005KT CAVOK 17/15 Q1006 FM1930 MOD TURB BLW 5000FT
cycle: 19
Auckland Airport, New Zealand (NZAA) 37-01S 174-48E 6M
Apr 25, 2017 - 04:00 PM EDT / 2017.04.25 2000 UTC
Wind: from the E (080 degrees) at 1 MPH (1 KT):0
Visibility: greater than 7 mile(s):0
Temperature: 53 F (12 C)
Dew Point: 53 F (12 C)
Relative Humidity: 100%
Pressure (altimeter): 30.15 in. Hg (1021 hPa)
ob: NZAA 252000Z AUTO 08001KT 9999 NCD 12/12 Q1021 NOSIG
cycle: 20